Newport News Williamsburg International Airport Newport News US
ICAO: KPHF
IATA: PHF
Category: Large
Scheduled Services: Yes

Elevation: 42 ft
TransAlt. 18000 ft.

Airport Communications:
NORFOLK APP:125.7
ATIS:128.65
CLNC DEL:121.65
CTAF:118.7
NORFOLK DEP:124.9
GND:121.9
LEESBURG RDO:122.65
TWR:124.9
UNICOM:122.95

KPHF Zoom In..

Runways:

(A) RW 02 length 6526 ft width 150 ft
LOC 109.30 / hdg 22

(B) RW 07 length 8003 ft width 150 ft
ILS 110.10 / hdg 67

(C) RW 20 length 6526 ft width 150 ft
LOC 109.30 / hdg 202

(D) RW 25 length 8003 ft width 150 ft
ILS 110.10 / hdg 247

Location; KPHF
Day. 16 / Time. 17.54 Zulu
* Altimeter: 30.02
* Temperature: 32° c. 89.6°f.
* Wind from: 200° Speed 10 kn.
Dewpoint: 23° c.
Visibility: 10 Statute Miles.
Clouds: Clear (automated report).

KPHF 161754Z 20010KT 10SM CLR 32/23 A3002 RMK AO2 SLP165 T03220228 10322 20256 58005


Wind From 200°
Speed 10 kn.

 
 
jpsmedia.com for Web Design worldairports.se 2018   terms of use